• Join FlightAware (Why Join?)
  • Login
  • US Flag 
11:02AM EST


 

Airport Tracker/Info


-or-


 

Live Flight TrackerFlight Track Log ✈ TAM3814 ✈ 25-May-2013 ✈ SBGL / GIG - SBBR / BSB

Flight Track Log - Related Links

Times and Time Zones

All times are in EDT time to prevent confusion due to time zone crossing. See the TAM3814 flight status page for this flight to view local times or setup timezone preferences in your user account.

Time Position Orientation Groundspeed Altitude Reporting Facility
EDT Latitude Longitude Course Direction KTS MPH feet Rate Location/Type
06:45PM -20.5742 -44.7995 327° Northwest  Level Estimated
06:46PM -20.5062 -44.8459 327° Northwest  Level Estimated
06:47PM -20.4383 -44.8923 327° Northwest  Level Estimated
06:48PM -20.3703 -44.9386 327° Northwest  Level Estimated
06:49PM -20.3023 -44.9849 327° Northwest  Level Estimated
06:50PM -20.2344 -45.0311 327° Northwest  Level Estimated
06:51PM -20.1663 -45.0773 327° Northwest  Level Estimated
06:52PM -20.0983 -45.1235 327° Northwest  Level Estimated
06:53PM -20.0303 -45.1696 327° Northwest  Level Estimated
06:54PM -19.9623 -45.2157 328° Northwest  Level Estimated
06:55PM -19.8942 -45.2618 328° Northwest  Level Estimated
06:56PM -19.8262 -45.3078 328° Northwest  Level Estimated
06:57PM -19.7581 -45.3537 328° Northwest  Level Estimated
06:58PM -19.6900 -45.3997 328° Northwest  Level Estimated
06:59PM -19.6219 -45.4456 328° Northwest  Level Estimated
07:00PM -19.5538 -45.4914 328° Northwest  Level Estimated
07:01PM -19.4857 -45.5372 328° Northwest  Level Estimated
07:02PM -19.4175 -45.5830 328° Northwest  Level Estimated
07:03PM -19.3494 -45.6287 328° Northwest  Level Estimated
07:04PM -19.2813 -45.6744 328° Northwest  Level Estimated
07:05PM -19.2131 -45.7201 328° Northwest  Level Estimated
07:06PM -19.1449 -45.7657 328° Northwest  Level Estimated
07:07PM -19.0767 -45.8113 328° Northwest  Level Estimated
07:08PM -19.0085 -45.8568 328° Northwest  Level Estimated
07:09PM -18.9403 -45.9024 328° Northwest  Level Estimated
07:10PM -18.8721 -45.9478 328° Northwest  Level Estimated
07:11PM -18.8039 -45.9933 328° Northwest  Level Estimated
07:12PM -18.7356 -46.0387 328° Northwest  Level Estimated
07:13PM -18.6674 -46.0840 328° Northwest  Level Estimated
07:14PM -18.5991 -46.1293 328° Northwest  Level Estimated
07:15PM -18.5308 -46.1746 328° Northwest  Level Estimated
07:16PM -18.4625 -46.2199 328° Northwest  Level Estimated
07:17PM -18.3942 -46.2651 328° Northwest  Level Estimated
07:18PM -18.3259 -46.3103 328° Northwest  Level Estimated
07:19PM -18.2576 -46.3554 328° Northwest  Level Estimated
07:20PM -18.1893 -46.4005 328° Northwest  Level Estimated
07:21PM -18.1209 -46.4456 328° Northwest  Level Estimated
07:22PM -18.0526 -46.4906 328° Northwest  Level Estimated
07:23PM -17.9842 -46.5356 328° Northwest  Level Estimated
07:24PM -17.9159 -46.5806 328° Northwest  Level Estimated
07:25PM -17.8475 -46.6255 328° Northwest  Level Estimated
07:26PM -17.7791 -46.6704 328° Northwest  Level Estimated
07:27PM -17.7107 -46.7153 328° Northwest  Level Estimated
07:28PM -17.6423 -46.7601 328° Northwest  Level Estimated
07:29PM -17.5739 -46.8049 328° Northwest  Level Estimated
07:30PM -17.5054 -46.8497 328° Northwest  Level Estimated
07:31PM -17.4370 -46.8944 328° Northwest  Level Estimated
07:32PM -17.3685 -46.9391 328° Northwest  Level Estimated
07:33PM -17.3001 -46.9838 328° Northwest  Level Estimated
07:34PM -17.2316 -47.0284 328° Northwest  Level Estimated
07:35PM -17.1631 -47.0730 328° Northwest  Level Estimated
07:36PM -17.0946 -47.1175 328° Northwest  Level Estimated
07:37PM -17.0261 -47.1621 328° Northwest  Level Estimated
07:38PM -16.9576 -47.2066 328° Northwest  Level Estimated
07:39PM -16.8891 -47.2510 328° Northwest  Level Estimated
07:40PM -16.8206 -47.2955 328° Northwest  Level Estimated
07:41PM -16.7520 -47.3399 328° Northwest  Level Estimated
07:42PM -16.6835 -47.3842 328° Northwest  Level Estimated
07:43PM -16.6149 -47.4286 328° Northwest  Level Estimated
07:44PM -16.5464 -47.4729 328° Northwest  Level Estimated
07:45PM -16.4778 -47.5171 328° Northwest  Level Estimated
07:46PM -16.4092 -47.5614 328° Northwest  Level Estimated
07:47PM -16.3406 -47.6056 328° Northwest  Level Estimated
07:48PM -16.2720 -47.6498 328° Northwest  Level Estimated
07:49PM -16.2034 -47.6939 328° Northwest  Level Estimated
07:50PM -16.1348 -47.7380 328° Northwest  Level Estimated
07:51PM -16.0661 -47.7821 328° Northwest  Level Estimated
07:52PM -15.9975 -47.8262 328° Northwest  Level Estimated
07:53PM -15.9288 -47.8702 328° Northwest  Level Estimated
07:54PM -15.8626 -47.9127 328° Northwest  Level Estimated
07:55PM -15.8626 -47.9127 128° Southeast  Level Estimated
07:56PM -15.8626 -47.9127 128° Southeast  Level Estimated
07:57PM -15.8626 -47.9127 128° Southeast  Level Estimated
07:58PM -15.8626 -47.9127 128° Southeast  Level Estimated
07:59PM -15.8626 -47.9127 128° Southeast  Level Estimated
08:00PM -15.8626 -47.9127 128° Southeast  Level Estimated
08:01PM -15.8626 -47.9127 128° Southeast  Level Estimated
08:02PM -15.8626 -47.9127 128° Southeast  Level Estimated
08:03PM -15.8626 -47.9127 128° Southeast  Level Estimated
08:04PM -15.8626 -47.9127 128° Southeast  Level Estimated
08:05PM -15.8626 -47.9127 128° Southeast  Level Estimated
08:06PM -15.8626 -47.9127 128° Southeast  Level Estimated
08:07PM -15.8626 -47.9127 128° Southeast  Level Estimated
08:08PM -15.8626 -47.9127 128° Southeast  Level Estimated
08:09PM -15.8626 -47.9127 128° Southeast  Level Estimated
08:10PM -15.8626 -47.9127 128° Southeast  Level Estimated